sensor_id;sensor_type;location;lat;lon;timestamp;temperature;humidity
1976;DHT22;988;48.016;7.800;2023-04-06T00:00:48;3.70;99.40
1976;DHT22;988;48.016;7.800;2023-04-06T00:03:15;3.50;99.90
1976;DHT22;988;48.016;7.800;2023-04-06T00:05:41;3.30;99.90
1976;DHT22;988;48.016;7.800;2023-04-06T00:08:07;3.50;99.90
1976;DHT22;988;48.016;7.800;2023-04-06T00:10:32;3.50;99.90
1976;DHT22;988;48.016;7.800;2023-04-06T00:12:59;3.30;99.90
1976;DHT22;988;48.016;7.800;2023-04-06T00:15:25;3.20;99.90
1976;DHT22;988;48.016;7.800;2023-04-06T00:17:52;3.10;99.90
1976;DHT22;988;48.016;7.800;2023-04-06T00:20:18;3.40;99.90
1976;DHT22;988;48.016;7.800;2023-04-06T00:22:45;3.20;99.90
1976;DHT22;988;48.016;7.800;2023-04-06T00:25:11;3.50;99.90
1976;DHT22;988;48.016;7.800;2023-04-06T00:27:37;3.30;99.60
1976;DHT22;988;48.016;7.800;2023-04-06T00:30:08;3.30;99.90
1976;DHT22;988;48.016;7.800;2023-04-06T00:32:36;3.10;99.90
1976;DHT22;988;48.016;7.800;2023-04-06T00:35:03;2.70;99.90
1976;DHT22;988;48.016;7.800;2023-04-06T00:37:28;2.90;99.90
1976;DHT22;988;48.016;7.800;2023-04-06T00:39:54;2.70;99.90
1976;DHT22;988;48.016;7.800;2023-04-06T00:42:21;2.60;99.90
1976;DHT22;988;48.016;7.800;2023-04-06T00:44:56;2.50;99.90
1976;DHT22;988;48.016;7.800;2023-04-06T00:47:22;2.50;99.90
1976;DHT22;988;48.016;7.800;2023-04-06T00:49:48;2.40;99.90
1976;DHT22;988;48.016;7.800;2023-04-06T00:52:14;2.40;99.90
1976;DHT22;988;48.016;7.800;2023-04-06T00:54:40;2.70;99.90
1976;DHT22;988;48.016;7.800;2023-04-06T00:57:06;2.50;99.90
1976;DHT22;988;48.016;7.800;2023-04-06T00:59:31;2.40;99.90
1976;DHT22;988;48.016;7.800;2023-04-06T01:01:57;2.50;99.90
1976;DHT22;988;48.016;7.800;2023-04-06T01:04:23;2.50;99.90
1976;DHT22;988;48.016;7.800;2023-04-06T01:06:49;2.40;99.90
1976;DHT22;988;48.016;7.800;2023-04-06T01:09:16;2.40;99.90
1976;DHT22;988;48.016;7.800;2023-04-06T01:11:41;2.70;99.90
1976;DHT22;988;48.016;7.800;2023-04-06T01:14:07;2.90;99.90
1976;DHT22;988;48.016;7.800;2023-04-06T01:16:33;2.70;99.90
1976;DHT22;988;48.016;7.800;2023-04-06T01:18:59;2.40;99.90
1976;DHT22;988;48.016;7.800;2023-04-06T01:21:24;2.50;99.90
1976;DHT22;988;48.016;7.800;2023-04-06T01:23:50;2.60;99.90
1976;DHT22;988;48.016;7.800;2023-04-06T01:26:16;2.80;99.90
1976;DHT22;988;48.016;7.800;2023-04-06T01:28:42;2.50;99.90
1976;DHT22;988;48.016;7.800;2023-04-06T01:31:08;2.70;99.90
1976;DHT22;988;48.016;7.800;2023-04-06T01:33:34;2.80;99.90
1976;DHT22;988;48.016;7.800;2023-04-06T01:36:01;2.90;99.90
1976;DHT22;988;48.016;7.800;2023-04-06T01:38:27;2.80;99.90
1976;DHT22;988;48.016;7.800;2023-04-06T01:40:53;2.50;99.90
1976;DHT22;988;48.016;7.800;2023-04-06T01:43:19;2.40;99.90
1976;DHT22;988;48.016;7.800;2023-04-06T01:45:44;2.30;99.90
1976;DHT22;988;48.016;7.800;2023-04-06T01:48:10;2.30;99.90
1976;DHT22;988;48.016;7.800;2023-04-06T01:50:36;2.20;99.90
1976;DHT22;988;48.016;7.800;2023-04-06T01:53:01;2.30;99.90
1976;DHT22;988;48.016;7.800;2023-04-06T01:55:27;2.40;99.90
1976;DHT22;988;48.016;7.800;2023-04-06T01:57:52;2.20;99.90
1976;DHT22;988;48.016;7.800;2023-04-06T02:00:18;2.30;99.90
1976;DHT22;988;48.016;7.800;2023-04-06T02:02:43;2.30;99.60
1976;DHT22;988;48.016;7.800;2023-04-06T02:05:09;2.10;97.50
1976;DHT22;988;48.016;7.800;2023-04-06T02:07:35;2.00;97.10
1976;DHT22;988;48.016;7.800;2023-04-06T02:10:00;2.20;95.40
1976;DHT22;988;48.016;7.800;2023-04-06T02:12:26;2.30;94.80
1976;DHT22;988;48.016;7.800;2023-04-06T02:14:51;2.10;93.60
1976;DHT22;988;48.016;7.800;2023-04-06T02:17:17;2.10;93.00
1976;DHT22;988;48.016;7.800;2023-04-06T02:19:43;2.40;93.10
1976;DHT22;988;48.016;7.800;2023-04-06T02:22:09;2.50;91.10
1976;DHT22;988;48.016;7.800;2023-04-06T02:24:35;2.50;90.40
1976;DHT22;988;48.016;7.800;2023-04-06T02:27:01;2.50;90.00
1976;DHT22;988;48.016;7.800;2023-04-06T02:29:26;2.70;89.20
1976;DHT22;988;48.016;7.800;2023-04-06T02:31:52;3.00;86.30
1976;DHT22;988;48.016;7.800;2023-04-06T02:34:17;2.90;84.90
1976;DHT22;988;48.016;7.800;2023-04-06T02:36:46;2.60;85.80
1976;DHT22;988;48.016;7.800;2023-04-06T02:39:13;2.50;86.70
1976;DHT22;988;48.016;7.800;2023-04-06T02:41:39;2.70;86.60
1976;DHT22;988;48.016;7.800;2023-04-06T02:44:08;2.50;86.80
1976;DHT22;988;48.016;7.800;2023-04-06T02:46:34;2.60;87.40
1976;DHT22;988;48.016;7.800;2023-04-06T02:49:00;2.90;86.00
1976;DHT22;988;48.016;7.800;2023-04-06T02:51:26;3.00;85.30
1976;DHT22;988;48.016;7.800;2023-04-06T02:53:52;2.90;84.30
1976;DHT22;988;48.016;7.800;2023-04-06T02:56:17;2.50;85.60
1976;DHT22;988;48.016;7.800;2023-04-06T02:58:43;2.40;87.50
1976;DHT22;988;48.016;7.800;2023-04-06T03:01:09;2.50;88.70
1976;DHT22;988;48.016;7.800;2023-04-06T03:03:34;2.60;89.20
1976;DHT22;988;48.016;7.800;2023-04-06T03:06:00;3.10;87.60
1976;DHT22;988;48.016;7.800;2023-04-06T03:08:25;3.10;87.20
1976;DHT22;988;48.016;7.800;2023-04-06T03:10:51;3.10;87.10
1976;DHT22;988;48.016;7.800;2023-04-06T03:13:16;2.90;87.90
1976;DHT22;988;48.016;7.800;2023-04-06T03:15:42;2.70;89.90
1976;DHT22;988;48.016;7.800;2023-04-06T03:18:08;2.60;90.00
1976;DHT22;988;48.016;7.800;2023-04-06T03:20:33;2.70;91.00
1976;DHT22;988;48.016;7.800;2023-04-06T03:22:59;2.60;91.80
1976;DHT22;988;48.016;7.800;2023-04-06T03:25:25;2.40;92.90
1976;DHT22;988;48.016;7.800;2023-04-06T03:27:50;2.40;93.80
1976;DHT22;988;48.016;7.800;2023-04-06T03:30:16;2.30;94.50
1976;DHT22;988;48.016;7.800;2023-04-06T03:32:43;2.10;95.00
1976;DHT22;988;48.016;7.800;2023-04-06T03:35:09;1.90;97.20
1976;DHT22;988;48.016;7.800;2023-04-06T03:37:35;2.20;97.50
1976;DHT22;988;48.016;7.800;2023-04-06T03:40:00;2.10;97.40
1976;DHT22;988;48.016;7.800;2023-04-06T03:42:26;2.20;96.10
1976;DHT22;988;48.016;7.800;2023-04-06T03:44:52;2.20;95.60
1976;DHT22;988;48.016;7.800;2023-04-06T03:47:17;2.10;97.20
1976;DHT22;988;48.016;7.800;2023-04-06T03:49:43;2.10;95.10
1976;DHT22;988;48.016;7.800;2023-04-06T03:52:09;2.10;94.80
1976;DHT22;988;48.016;7.800;2023-04-06T03:54:35;2.10;94.60
1976;DHT22;988;48.016;7.800;2023-04-06T03:57:00;1.80;94.10
1976;DHT22;988;48.016;7.800;2023-04-06T03:59:26;2.10;93.80
1976;DHT22;988;48.016;7.800;2023-04-06T04:01:51;2.00;93.60
1976;DHT22;988;48.016;7.800;2023-04-06T04:04:17;1.90;93.50
1976;DHT22;988;48.016;7.800;2023-04-06T04:06:43;1.90;93.30
1976;DHT22;988;48.016;7.800;2023-04-06T04:09:08;2.00;93.00
1976;DHT22;988;48.016;7.800;2023-04-06T04:11:34;2.10;92.10
1976;DHT22;988;48.016;7.800;2023-04-06T04:14:00;2.00;91.30
1976;DHT22;988;48.016;7.800;2023-04-06T04:16:25;2.10;91.60
1976;DHT22;988;48.016;7.800;2023-04-06T04:18:51;2.10;91.40
1976;DHT22;988;48.016;7.800;2023-04-06T04:21:16;2.00;90.90
1976;DHT22;988;48.016;7.800;2023-04-06T04:23:42;1.90;91.40
1976;DHT22;988;48.016;7.800;2023-04-06T04:26:07;1.80;92.00
1976;DHT22;988;48.016;7.800;2023-04-06T04:28:33;1.90;91.60
1976;DHT22;988;48.016;7.800;2023-04-06T04:30:58;1.90;92.00
1976;DHT22;988;48.016;7.800;2023-04-06T04:33:24;1.80;91.70
1976;DHT22;988;48.016;7.800;2023-04-06T04:35:50;1.90;92.00
1976;DHT22;988;48.016;7.800;2023-04-06T04:38:16;2.00;91.10
1976;DHT22;988;48.016;7.800;2023-04-06T04:40:41;2.10;91.40
1976;DHT22;988;48.016;7.800;2023-04-06T04:43:07;2.10;90.80
1976;DHT22;988;48.016;7.800;2023-04-06T04:45:32;2.20;91.00
1976;DHT22;988;48.016;7.800;2023-04-06T04:47:58;2.50;90.50
1976;DHT22;988;48.016;7.800;2023-04-06T04:50:23;2.50;90.90
1976;DHT22;988;48.016;7.800;2023-04-06T04:52:49;2.80;90.40
1976;DHT22;988;48.016;7.800;2023-04-06T04:55:15;3.00;90.20
1976;DHT22;988;48.016;7.800;2023-04-06T04:57:40;3.10;89.20
1976;DHT22;988;48.016;7.800;2023-04-06T05:00:07;3.00;89.00
1976;DHT22;988;48.016;7.800;2023-04-06T05:02:33;2.60;90.10
1976;DHT22;988;48.016;7.800;2023-04-06T05:04:59;2.50;91.10
1976;DHT22;988;48.016;7.800;2023-04-06T05:07:24;2.50;91.00
1976;DHT22;988;48.016;7.800;2023-04-06T05:09:50;2.40;91.50
1976;DHT22;988;48.016;7.800;2023-04-06T05:12:15;2.40;91.90
1976;DHT22;988;48.016;7.800;2023-04-06T05:14:41;2.30;92.00
1976;DHT22;988;48.016;7.800;2023-04-06T05:17:07;2.50;92.40
1976;DHT22;988;48.016;7.800;2023-04-06T05:19:32;2.50;92.40
1976;DHT22;988;48.016;7.800;2023-04-06T05:21:58;2.50;92.10
1976;DHT22;988;48.016;7.800;2023-04-06T05:24:23;2.60;91.40
1976;DHT22;988;48.016;7.800;2023-04-06T05:26:49;2.50;92.00
1976;DHT22;988;48.016;7.800;2023-04-06T05:29:15;2.80;92.60
1976;DHT22;988;48.016;7.800;2023-04-06T05:31:40;3.00;90.90
1976;DHT22;988;48.016;7.800;2023-04-06T05:34:06;3.40;92.10
1976;DHT22;988;48.016;7.800;2023-04-06T05:36:32;3.50;91.90
1976;DHT22;988;48.016;7.800;2023-04-06T05:38:58;3.50;92.30
1976;DHT22;988;48.016;7.800;2023-04-06T05:41:23;3.30;93.00
1976;DHT22;988;48.016;7.800;2023-04-06T05:43:49;3.30;93.10
1976;DHT22;988;48.016;7.800;2023-04-06T05:46:15;3.50;93.00
1976;DHT22;988;48.016;7.800;2023-04-06T05:48:40;3.50;94.60
1976;DHT22;988;48.016;7.800;2023-04-06T05:51:06;3.40;95.00
1976;DHT22;988;48.016;7.800;2023-04-06T05:53:32;3.50;93.80
1976;DHT22;988;48.016;7.800;2023-04-06T05:56:01;3.50;93.40
1976;DHT22;988;48.016;7.800;2023-04-06T05:58:26;3.60;92.50
1976;DHT22;988;48.016;7.800;2023-04-06T06:00:57;3.80;92.70
1976;DHT22;988;48.016;7.800;2023-04-06T06:03:23;4.00;91.80
1976;DHT22;988;48.016;7.800;2023-04-06T06:05:48;4.10;92.10
1976;DHT22;988;48.016;7.800;2023-04-06T06:08:14;4.30;91.00
1976;DHT22;988;48.016;7.800;2023-04-06T06:10:39;4.40;90.70
1976;DHT22;988;48.016;7.800;2023-04-06T06:13:05;4.30;90.80
1976;DHT22;988;48.016;7.800;2023-04-06T06:15:31;4.20;90.70
1976;DHT22;988;48.016;7.800;2023-04-06T06:17:56;4.20;89.80
1976;DHT22;988;48.016;7.800;2023-04-06T06:20:22;4.70;90.00
1976;DHT22;988;48.016;7.800;2023-04-06T06:22:48;4.80;87.90
1976;DHT22;988;48.016;7.800;2023-04-06T06:25:13;4.90;87.90
1976;DHT22;988;48.016;7.800;2023-04-06T06:27:39;5.00;87.60
1976;DHT22;988;48.016;7.800;2023-04-06T06:30:05;4.80;90.10
1976;DHT22;988;48.016;7.800;2023-04-06T06:32:31;4.90;90.10
1976;DHT22;988;48.016;7.800;2023-04-06T06:34:57;5.10;88.80
1976;DHT22;988;48.016;7.800;2023-04-06T06:37:23;5.20;87.60
1976;DHT22;988;48.016;7.800;2023-04-06T06:39:48;5.40;87.20
1976;DHT22;988;48.016;7.800;2023-04-06T06:42:14;5.30;85.80
1976;DHT22;988;48.016;7.800;2023-04-06T06:44:40;5.50;85.70
1976;DHT22;988;48.016;7.800;2023-04-06T06:47:05;5.80;85.10
1976;DHT22;988;48.016;7.800;2023-04-06T06:49:31;5.60;84.70
1976;DHT22;988;48.016;7.800;2023-04-06T06:51:56;5.50;85.40
1976;DHT22;988;48.016;7.800;2023-04-06T06:54:22;5.90;83.80
1976;DHT22;988;48.016;7.800;2023-04-06T06:56:47;5.80;81.90
1976;DHT22;988;48.016;7.800;2023-04-06T06:59:13;6.00;79.60
1976;DHT22;988;48.016;7.800;2023-04-06T07:01:38;6.20;80.40
1976;DHT22;988;48.016;7.800;2023-04-06T07:04:04;6.80;78.00
1976;DHT22;988;48.016;7.800;2023-04-06T07:06:30;7.00;76.30
1976;DHT22;988;48.016;7.800;2023-04-06T07:08:55;7.50;73.20
1976;DHT22;988;48.016;7.800;2023-04-06T07:11:21;7.50;70.70
1976;DHT22;988;48.016;7.800;2023-04-06T07:13:46;7.60;69.20
1976;DHT22;988;48.016;7.800;2023-04-06T07:16:12;7.20;68.90
1976;DHT22;988;48.016;7.800;2023-04-06T07:18:38;7.30;69.50
1976;DHT22;988;48.016;7.800;2023-04-06T07:21:03;7.20;68.20
1976;DHT22;988;48.016;7.800;2023-04-06T07:23:29;7.20;68.50
1976;DHT22;988;48.016;7.800;2023-04-06T07:25:55;7.30;68.80
1976;DHT22;988;48.016;7.800;2023-04-06T07:28:20;7.80;68.10
1976;DHT22;988;48.016;7.800;2023-04-06T07:30:47;8.00;66.10
1976;DHT22;988;48.016;7.800;2023-04-06T07:33:12;7.90;67.00
1976;DHT22;988;48.016;7.800;2023-04-06T07:35:38;8.30;65.00
1976;DHT22;988;48.016;7.800;2023-04-06T07:38:04;8.40;64.50
1976;DHT22;988;48.016;7.800;2023-04-06T07:40:30;8.60;62.70
1976;DHT22;988;48.016;7.800;2023-04-06T07:42:57;9.00;61.20
1976;DHT22;988;48.016;7.800;2023-04-06T07:45:22;9.10;61.50
1976;DHT22;988;48.016;7.800;2023-04-06T07:47:48;9.70;61.30
1976;DHT22;988;48.016;7.800;2023-04-06T07:50:15;11.10;59.20
1976;DHT22;988;48.016;7.800;2023-04-06T07:52:41;13.60;54.50
1976;DHT22;988;48.016;7.800;2023-04-06T07:55:07;16.90;49.00
1976;DHT22;988;48.016;7.800;2023-04-06T07:57:32;19.80;44.00
1976;DHT22;988;48.016;7.800;2023-04-06T07:59:58;22.40;38.70
1976;DHT22;988;48.016;7.800;2023-04-06T08:02:23;24.20;36.30
1976;DHT22;988;48.016;7.800;2023-04-06T08:04:49;25.80;33.20
1976;DHT22;988;48.016;7.800;2023-04-06T08:07:15;27.20;30.50
1976;DHT22;988;48.016;7.800;2023-04-06T08:09:40;27.80;29.50
1976;DHT22;988;48.016;7.800;2023-04-06T08:12:06;28.90;29.30
1976;DHT22;988;48.016;7.800;2023-04-06T08:14:31;29.80;28.30
1976;DHT22;988;48.016;7.800;2023-04-06T08:16:57;29.40;26.80
1976;DHT22;988;48.016;7.800;2023-04-06T08:19:23;27.30;27.30
1976;DHT22;988;48.016;7.800;2023-04-06T08:21:48;25.70;29.40
1976;DHT22;988;48.016;7.800;2023-04-06T08:24:14;27.50;28.40
1976;DHT22;988;48.016;7.800;2023-04-06T08:26:40;26.30;27.80
1976;DHT22;988;48.016;7.800;2023-04-06T08:29:06;26.40;28.90
1976;DHT22;988;48.016;7.800;2023-04-06T08:31:35;28.90;27.70
1976;DHT22;988;48.016;7.800;2023-04-06T08:34:02;28.20;26.60
1976;DHT22;988;48.016;7.800;2023-04-06T08:36:28;28.30;25.60
1976;DHT22;988;48.016;7.800;2023-04-06T08:38:54;27.00;26.20
1976;DHT22;988;48.016;7.800;2023-04-06T08:41:20;25.30;28.20
1976;DHT22;988;48.016;7.800;2023-04-06T08:43:51;28.00;27.70
1976;DHT22;988;48.016;7.800;2023-04-06T08:46:21;29.40;26.10
1976;DHT22;988;48.016;7.800;2023-04-06T08:48:47;29.00;25.50
1976;DHT22;988;48.016;7.800;2023-04-06T08:51:15;27.40;27.00
1976;DHT22;988;48.016;7.800;2023-04-06T08:53:41;27.40;25.90
1976;DHT22;988;48.016;7.800;2023-04-06T08:56:07;28.60;25.30
1976;DHT22;988;48.016;7.800;2023-04-06T08:58:37;28.50;25.20
1976;DHT22;988;48.016;7.800;2023-04-06T09:01:07;29.50;25.70
1976;DHT22;988;48.016;7.800;2023-04-06T09:03:40;31.50;24.20
1976;DHT22;988;48.016;7.800;2023-04-06T09:06:06;30.90;24.10
1976;DHT22;988;48.016;7.800;2023-04-06T09:08:38;30.90;23.40
1976;DHT22;988;48.016;7.800;2023-04-06T09:11:04;30.50;23.80
1976;DHT22;988;48.016;7.800;2023-04-06T09:13:30;31.30;23.00
1976;DHT22;988;48.016;7.800;2023-04-06T09:16:03;29.10;24.10
1976;DHT22;988;48.016;7.800;2023-04-06T09:18:33;29.90;23.50
1976;DHT22;988;48.016;7.800;2023-04-06T09:21:04;29.90;23.10
1976;DHT22;988;48.016;7.800;2023-04-06T09:23:30;29.20;23.00
1976;DHT22;988;48.016;7.800;2023-04-06T09:26:17;28.90;24.20
1976;DHT22;988;48.016;7.800;2023-04-06T09:31:16;30.10;23.20
1976;DHT22;988;48.016;7.800;2023-04-06T09:33:44;29.00;24.10
1976;DHT22;988;48.016;7.800;2023-04-06T09:36:10;28.60;24.50
1976;DHT22;988;48.016;7.800;2023-04-06T09:38:37;27.40;24.80
1976;DHT22;988;48.016;7.800;2023-04-06T09:41:03;27.00;25.30
1976;DHT22;988;48.016;7.800;2023-04-06T09:43:29;25.40;25.80
1976;DHT22;988;48.016;7.800;2023-04-06T09:45:56;27.00;25.90
1976;DHT22;988;48.016;7.800;2023-04-06T09:48:22;28.70;25.10
1976;DHT22;988;48.016;7.800;2023-04-06T09:50:50;28.10;23.90
1976;DHT22;988;48.016;7.800;2023-04-06T09:53:19;28.10;24.10
1976;DHT22;988;48.016;7.800;2023-04-06T09:55:46;28.90;24.20
1976;DHT22;988;48.016;7.800;2023-04-06T09:58:19;26.50;24.40
1976;DHT22;988;48.016;7.800;2023-04-06T10:01:02;25.10;26.20
1976;DHT22;988;48.016;7.800;2023-04-06T10:06:05;24.70;27.90
1976;DHT22;988;48.016;7.800;2023-04-06T10:08:32;23.80;26.50
1976;DHT22;988;48.016;7.800;2023-04-06T10:10:59;23.10;27.90
1976;DHT22;988;48.016;7.800;2023-04-06T10:13:27;23.30;26.40
1976;DHT22;988;48.016;7.800;2023-04-06T10:15:53;24.60;27.00
1976;DHT22;988;48.016;7.800;2023-04-06T10:18:19;26.50;26.60
1976;DHT22;988;48.016;7.800;2023-04-06T10:20:56;26.20;25.20
1976;DHT22;988;48.016;7.800;2023-04-06T10:23:45;26.60;25.40
1976;DHT22;988;48.016;7.800;2023-04-06T10:26:14;28.10;25.90
1976;DHT22;988;48.016;7.800;2023-04-06T10:28:42;26.40;25.20
1976;DHT22;988;48.016;7.800;2023-04-06T10:31:08;28.00;24.90
1976;DHT22;988;48.016;7.800;2023-04-06T10:33:34;27.80;24.00
1976;DHT22;988;48.016;7.800;2023-04-06T10:36:10;25.30;26.00
1976;DHT22;988;48.016;7.800;2023-04-06T10:38:40;24.90;27.00
1976;DHT22;988;48.016;7.800;2023-04-06T10:41:08;27.30;25.60
1976;DHT22;988;48.016;7.800;2023-04-06T10:43:35;26.00;26.40
1976;DHT22;988;48.016;7.800;2023-04-06T10:46:01;23.50;27.40
1976;DHT22;988;48.016;7.800;2023-04-06T10:48:45;24.20;27.50
1976;DHT22;988;48.016;7.800;2023-04-06T10:51:17;23.80;27.40
1976;DHT22;988;48.016;7.800;2023-04-06T10:53:47;25.50;27.00
1976;DHT22;988;48.016;7.800;2023-04-06T10:56:15;26.40;26.30
1976;DHT22;988;48.016;7.800;2023-04-06T10:58:46;27.40;25.50
1976;DHT22;988;48.016;7.800;2023-04-06T11:01:12;25.90;25.60
1976;DHT22;988;48.016;7.800;2023-04-06T11:03:49;27.20;24.20
1976;DHT22;988;48.016;7.800;2023-04-06T11:06:22;24.80;25.90
1976;DHT22;988;48.016;7.800;2023-04-06T11:08:48;26.90;25.90
1976;DHT22;988;48.016;7.800;2023-04-06T11:11:16;27.80;24.30
1976;DHT22;988;48.016;7.800;2023-04-06T11:16:19;26.40;24.40
1976;DHT22;988;48.016;7.800;2023-04-06T11:18:59;27.60;23.80
1976;DHT22;988;48.016;7.800;2023-04-06T11:21:39;26.60;25.40
1976;DHT22;988;48.016;7.800;2023-04-06T11:24:18;26.40;25.10
1976;DHT22;988;48.016;7.800;2023-04-06T11:26:49;26.40;24.10
1976;DHT22;988;48.016;7.800;2023-04-06T11:29:21;22.70;26.20
1976;DHT22;988;48.016;7.800;2023-04-06T11:32:05;22.80;25.90
1976;DHT22;988;48.016;7.800;2023-04-06T11:34:39;24.00;26.60
1976;DHT22;988;48.016;7.800;2023-04-06T11:37:10;25.10;26.00
1976;DHT22;988;48.016;7.800;2023-04-06T11:39:51;27.20;25.40
1976;DHT22;988;48.016;7.800;2023-04-06T11:42:23;28.90;23.80
1976;DHT22;988;48.016;7.800;2023-04-06T11:44:59;29.80;23.10
1976;DHT22;988;48.016;7.800;2023-04-06T11:47:36;28.20;23.30
1976;DHT22;988;48.016;7.800;2023-04-06T11:50:11;29.40;23.10
1976;DHT22;988;48.016;7.800;2023-04-06T11:52:39;30.30;23.40
1976;DHT22;988;48.016;7.800;2023-04-06T11:55:16;30.30;22.50
1976;DHT22;988;48.016;7.800;2023-04-06T11:57:42;31.20;23.30
1976;DHT22;988;48.016;7.800;2023-04-06T12:00:09;32.80;21.30
1976;DHT22;988;48.016;7.800;2023-04-06T12:02:38;32.20;21.10
1976;DHT22;988;48.016;7.800;2023-04-06T12:05:05;30.90;22.20
1976;DHT22;988;48.016;7.800;2023-04-06T12:07:31;26.20;24.90
1976;DHT22;988;48.016;7.800;2023-04-06T12:09:57;24.40;26.00
1976;DHT22;988;48.016;7.800;2023-04-06T12:12:23;23.50;25.70
1976;DHT22;988;48.016;7.800;2023-04-06T12:14:48;23.30;26.80
1976;DHT22;988;48.016;7.800;2023-04-06T12:17:14;25.40;26.20
1976;DHT22;988;48.016;7.800;2023-04-06T12:19:40;27.20;25.70
1976;DHT22;988;48.016;7.800;2023-04-06T12:22:05;28.50;24.40
1976;DHT22;988;48.016;7.800;2023-04-06T12:24:31;27.90;24.00
1976;DHT22;988;48.016;7.800;2023-04-06T12:26:57;28.50;24.10
1976;DHT22;988;48.016;7.800;2023-04-06T12:29:24;27.90;24.50
1976;DHT22;988;48.016;7.800;2023-04-06T12:31:50;26.40;25.30
1976;DHT22;988;48.016;7.800;2023-04-06T12:34:16;24.40;25.20
1976;DHT22;988;48.016;7.800;2023-04-06T12:36:41;24.70;26.00
1976;DHT22;988;48.016;7.800;2023-04-06T12:39:07;25.40;25.40
1976;DHT22;988;48.016;7.800;2023-04-06T12:41:33;25.90;25.50
1976;DHT22;988;48.016;7.800;2023-04-06T12:44:00;26.30;26.20
1976;DHT22;988;48.016;7.800;2023-04-06T12:46:26;23.80;26.60
1976;DHT22;988;48.016;7.800;2023-04-06T12:48:52;23.90;26.10
1976;DHT22;988;48.016;7.800;2023-04-06T12:51:19;22.30;27.40
1976;DHT22;988;48.016;7.800;2023-04-06T12:53:45;21.20;28.10
1976;DHT22;988;48.016;7.800;2023-04-06T12:56:15;21.50;28.10
1976;DHT22;988;48.016;7.800;2023-04-06T12:58:41;20.00;30.00
1976;DHT22;988;48.016;7.800;2023-04-06T13:01:08;19.80;29.90
1976;DHT22;988;48.016;7.800;2023-04-06T13:03:33;19.40;30.60
1976;DHT22;988;48.016;7.800;2023-04-06T13:06:00;19.50;30.40
1976;DHT22;988;48.016;7.800;2023-04-06T13:08:26;20.50;28.70
1976;DHT22;988;48.016;7.800;2023-04-06T13:10:53;20.30;29.20
1976;DHT22;988;48.016;7.800;2023-04-06T13:13:27;20.40;28.80
1976;DHT22;988;48.016;7.800;2023-04-06T13:15:55;21.60;28.50
1976;DHT22;988;48.016;7.800;2023-04-06T13:18:21;21.10;31.40
1976;DHT22;988;48.016;7.800;2023-04-06T13:20:48;22.60;30.00
1976;DHT22;988;48.016;7.800;2023-04-06T13:23:13;23.10;28.20
1976;DHT22;988;48.016;7.800;2023-04-06T13:25:40;22.50;27.60
1976;DHT22;988;48.016;7.800;2023-04-06T13:28:05;22.90;27.90
1976;DHT22;988;48.016;7.800;2023-04-06T13:30:31;22.60;28.20
1976;DHT22;988;48.016;7.800;2023-04-06T13:32:56;22.50;28.50
1976;DHT22;988;48.016;7.800;2023-04-06T13:35:22;22.20;28.00
1976;DHT22;988;48.016;7.800;2023-04-06T13:37:48;21.80;29.20
1976;DHT22;988;48.016;7.800;2023-04-06T13:40:14;20.60;29.30
1976;DHT22;988;48.016;7.800;2023-04-06T13:42:39;20.20;29.30
1976;DHT22;988;48.016;7.800;2023-04-06T13:45:06;20.50;29.20
1976;DHT22;988;48.016;7.800;2023-04-06T13:47:32;21.60;28.60
1976;DHT22;988;48.016;7.800;2023-04-06T13:49:58;23.00;28.20
1976;DHT22;988;48.016;7.800;2023-04-06T13:52:24;23.40;27.10
1976;DHT22;988;48.016;7.800;2023-04-06T13:54:49;23.80;28.20
1976;DHT22;988;48.016;7.800;2023-04-06T13:57:15;23.60;26.60
1976;DHT22;988;48.016;7.800;2023-04-06T13:59:41;22.30;27.40
1976;DHT22;988;48.016;7.800;2023-04-06T14:02:08;21.30;29.20
1976;DHT22;988;48.016;7.800;2023-04-06T14:04:34;19.60;29.60
1976;DHT22;988;48.016;7.800;2023-04-06T14:07:01;19.50;30.20
1976;DHT22;988;48.016;7.800;2023-04-06T14:09:28;20.00;29.90
1976;DHT22;988;48.016;7.800;2023-04-06T14:11:54;18.60;31.80
1976;DHT22;988;48.016;7.800;2023-04-06T14:14:20;17.90;32.70
1976;DHT22;988;48.016;7.800;2023-04-06T14:16:46;16.80;33.30
1976;DHT22;988;48.016;7.800;2023-04-06T14:19:14;16.90;32.40
1976;DHT22;988;48.016;7.800;2023-04-06T14:21:46;16.80;33.00
1976;DHT22;988;48.016;7.800;2023-04-06T14:24:13;16.70;33.50
1976;DHT22;988;48.016;7.800;2023-04-06T14:26:40;16.50;33.70
1976;DHT22;988;48.016;7.800;2023-04-06T14:29:07;16.80;34.30
1976;DHT22;988;48.016;7.800;2023-04-06T14:31:32;17.40;33.10
1976;DHT22;988;48.016;7.800;2023-04-06T14:34:01;17.10;33.40
1976;DHT22;988;48.016;7.800;2023-04-06T14:36:27;17.80;33.30
1976;DHT22;988;48.016;7.800;2023-04-06T14:38:56;17.30;33.90
1976;DHT22;988;48.016;7.800;2023-04-06T14:41:23;17.00;33.80
1976;DHT22;988;48.016;7.800;2023-04-06T14:43:50;16.50;34.70
1976;DHT22;988;48.016;7.800;2023-04-06T14:46:18;16.40;35.10
1976;DHT22;988;48.016;7.800;2023-04-06T14:48:44;16.30;34.50
1976;DHT22;988;48.016;7.800;2023-04-06T14:51:10;16.60;34.10
1976;DHT22;988;48.016;7.800;2023-04-06T14:53:36;16.80;35.40
1976;DHT22;988;48.016;7.800;2023-04-06T14:56:02;16.50;35.70
1976;DHT22;988;48.016;7.800;2023-04-06T14:58:28;16.10;34.70
1976;DHT22;988;48.016;7.800;2023-04-06T15:00:59;15.90;35.70
1976;DHT22;988;48.016;7.800;2023-04-06T15:03:26;16.70;35.50
1976;DHT22;988;48.016;7.800;2023-04-06T15:05:53;16.70;34.80
1976;DHT22;988;48.016;7.800;2023-04-06T15:08:19;15.80;36.30
1976;DHT22;988;48.016;7.800;2023-04-06T15:10:50;15.70;35.90
1976;DHT22;988;48.016;7.800;2023-04-06T15:13:17;15.90;35.70
1976;DHT22;988;48.016;7.800;2023-04-06T15:15:43;16.10;36.00
1976;DHT22;988;48.016;7.800;2023-04-06T15:18:10;15.70;35.20
1976;DHT22;988;48.016;7.800;2023-04-06T15:20:36;15.60;37.20
1976;DHT22;988;48.016;7.800;2023-04-06T15:23:02;15.90;37.60
1976;DHT22;988;48.016;7.800;2023-04-06T15:25:28;15.90;37.00
1976;DHT22;988;48.016;7.800;2023-04-06T15:27:54;16.30;36.60
1976;DHT22;988;48.016;7.800;2023-04-06T15:30:20;16.60;36.50
1976;DHT22;988;48.016;7.800;2023-04-06T15:32:57;15.70;38.00
1976;DHT22;988;48.016;7.800;2023-04-06T15:35:24;15.00;39.50
1976;DHT22;988;48.016;7.800;2023-04-06T15:37:52;14.50;40.20
1976;DHT22;988;48.016;7.800;2023-04-06T15:40:17;14.30;39.10
1976;DHT22;988;48.016;7.800;2023-04-06T15:42:43;14.80;39.30
1976;DHT22;988;48.016;7.800;2023-04-06T15:45:10;14.50;39.40
1976;DHT22;988;48.016;7.800;2023-04-06T15:47:40;14.50;38.90
1976;DHT22;988;48.016;7.800;2023-04-06T15:50:06;14.70;39.80
1976;DHT22;988;48.016;7.800;2023-04-06T15:52:33;14.80;43.80
1976;DHT22;988;48.016;7.800;2023-04-06T15:54:58;15.00;41.50
1976;DHT22;988;48.016;7.800;2023-04-06T15:57:24;15.20;41.30
1976;DHT22;988;48.016;7.800;2023-04-06T15:59:50;15.40;40.70
1976;DHT22;988;48.016;7.800;2023-04-06T16:02:16;15.70;40.00
1976;DHT22;988;48.016;7.800;2023-04-06T16:04:42;15.90;39.50
1976;DHT22;988;48.016;7.800;2023-04-06T16:07:08;15.80;40.50
1976;DHT22;988;48.016;7.800;2023-04-06T16:09:33;15.70;40.50
1976;DHT22;988;48.016;7.800;2023-04-06T16:11:59;16.10;39.80
1976;DHT22;988;48.016;7.800;2023-04-06T16:14:26;16.20;38.80
1976;DHT22;988;48.016;7.800;2023-04-06T16:16:51;16.40;38.40
1976;DHT22;988;48.016;7.800;2023-04-06T16:19:17;15.90;38.70
1976;DHT22;988;48.016;7.800;2023-04-06T16:21:43;15.80;39.30
1976;DHT22;988;48.016;7.800;2023-04-06T16:24:09;15.00;40.50
1976;DHT22;988;48.016;7.800;2023-04-06T16:26:34;14.70;40.70
1976;DHT22;988;48.016;7.800;2023-04-06T16:29:01;15.30;40.20
1976;DHT22;988;48.016;7.800;2023-04-06T16:31:26;14.90;40.90